MET'MAP v2.0
soon released !

Expected late october,
this new version will be
more efficient, smarter,
and hosted on a brand new
server x3 powerfull...
...and still free !


Not compatible ?
Try the mobile version !

LOG IN : | Subscribe | Disclaimer | Who is Orbifly ? |
ICAO code :
Legend : VFR Marginal VFR IFR Intensive IFR Very Intensive IFR
Visi :
Ceiling :
>= 8 km
>= 3000ft
5 to 8 km
1000 to 3000 ft
1500m to 5 km
500 to 1000 ft
800 to 1500m
200 to 500 ft
< 800m
< 200 ft

METAR - LKPD Pardubice AB - 09 Apr 2020 10:22 UTC - Data Source NOAA   


- Airport Elevation : 741 ft
- IATA code : PED
- No reported NOTAMs.


LKPD - Pardubice AB

Latest METAR recorded : 2015/08/11 08:15 LKPD 110815Z VRB01KT CAVOK 30/15 Q1015 RMK BLACK
TAF TAF LKPD
Valid from the 09 at 06:00 until the 10 at 06:00 UTC


090500Z 0906/1006 VRB02KT CAVOK
BECMG 0909/0911 30008KT
TEMPO 0915/0919 33014KT
BECMG 1002/1004 27004KT

Source NOAA


MET'MAP, your aeronautical weather chart ! - Copyright ORBIFLY December 2007

Programming & Development : Alexandra Zaïnal
Co-Developer : Marc-Olivier Méhu
Technical & hardware support : Manuel Goepfert
Concept & Financing : Baudouin d'Aumeries